createdAt,value
2023-08-07T00:01:54.436Z,1.92
2023-08-07T00:04:21.069Z,1.70
2023-08-07T00:06:47.473Z,1.60
2023-08-07T00:09:13.977Z,2.10
2023-08-07T00:11:40.359Z,1.77
2023-08-07T00:14:06.826Z,1.52
2023-08-07T00:16:33.317Z,1.73
2023-08-07T00:18:59.862Z,2.08
2023-08-07T00:21:26.329Z,1.60
2023-08-07T00:23:52.812Z,1.67
2023-08-07T00:26:19.309Z,2.33
2023-08-07T00:28:45.889Z,1.92
2023-08-07T00:31:13.509Z,1.63
2023-08-07T00:33:40.163Z,1.90
2023-08-07T00:36:06.603Z,1.70
2023-08-07T00:38:33.035Z,1.88
2023-08-07T00:41:00.922Z,1.63
2023-08-07T00:43:27.546Z,2.10
2023-08-07T00:45:54.478Z,1.70
2023-08-07T00:48:21.257Z,1.58
2023-08-07T00:50:50.065Z,3.45
2023-08-07T00:53:16.786Z,1.92
2023-08-07T00:55:43.858Z,1.50
2023-08-07T00:58:10.415Z,1.50
2023-08-07T01:00:37.113Z,2.40
2023-08-07T01:03:08.143Z,1.52
2023-08-07T01:05:35.310Z,1.77
2023-08-07T01:08:03.856Z,1.55
2023-08-07T01:10:51.157Z,1.90
2023-08-07T01:13:48.240Z,2.42
2023-08-07T01:16:27.346Z,2.03
2023-08-07T01:18:55.773Z,1.80
2023-08-07T01:21:22.487Z,2.10
2023-08-07T01:23:49.281Z,1.60
2023-08-07T01:26:20.462Z,2.53
2023-08-07T01:29:12.819Z,2.08
2023-08-07T01:31:42.958Z,1.92
2023-08-07T01:34:13.187Z,1.80
2023-08-07T01:36:41.039Z,2.17
2023-08-07T01:39:09.472Z,2.10
2023-08-07T01:41:37.082Z,2.05
2023-08-07T01:44:05.140Z,2.25
2023-08-07T01:46:31.820Z,2.15
2023-08-07T01:48:58.290Z,2.35
2023-08-07T01:51:24.792Z,1.98
2023-08-07T01:53:51.248Z,2.33
2023-08-07T01:56:17.685Z,2.00
2023-08-07T01:58:44.164Z,1.92
2023-08-07T02:01:10.592Z,1.90
2023-08-07T02:03:37.096Z,2.35
2023-08-07T02:06:03.952Z,2.22
2023-08-07T02:08:30.395Z,3.67
2023-08-07T02:10:56.836Z,2.55
2023-08-07T02:13:23.597Z,3.35
2023-08-07T02:15:49.997Z,2.45
2023-08-07T02:18:16.418Z,3.03
2023-08-07T02:20:42.862Z,2.03
2023-08-07T02:23:09.362Z,2.22
2023-08-07T02:25:35.876Z,2.35
2023-08-07T02:28:02.335Z,2.75
2023-08-07T02:30:28.780Z,2.30
2023-08-07T02:32:55.249Z,2.22
2023-08-07T02:35:21.797Z,2.33
2023-08-07T02:37:48.249Z,2.38
2023-08-07T02:40:16.489Z,2.67
2023-08-07T02:42:43.461Z,2.58
2023-08-07T02:45:10.288Z,2.08
2023-08-07T02:47:36.887Z,2.30
2023-08-07T02:50:03.632Z,3.08
2023-08-07T02:52:30.809Z,2.83
2023-08-07T02:54:57.245Z,2.70
2023-08-07T02:57:23.662Z,2.80
2023-08-07T02:59:50.069Z,3.25
2023-08-07T03:02:16.502Z,2.42
2023-08-07T03:04:42.948Z,2.75
2023-08-07T03:07:09.379Z,2.50
2023-08-07T03:09:35.822Z,2.85
2023-08-07T03:12:04.674Z,3.10
2023-08-07T03:14:32.695Z,2.25
2023-08-07T03:16:59.112Z,3.05
2023-08-07T03:19:25.504Z,3.25
2023-08-07T03:21:51.918Z,3.15
2023-08-07T03:24:18.493Z,2.47
2023-08-07T03:26:45.354Z,2.20
2023-08-07T03:29:11.920Z,2.50
2023-08-07T03:31:38.487Z,2.30
2023-08-07T03:34:08.017Z,2.80
2023-08-07T03:36:34.450Z,2.83
2023-08-07T03:39:00.998Z,2.95
2023-08-07T03:41:27.880Z,3.33
2023-08-07T03:43:54.367Z,2.80
2023-08-07T03:46:20.748Z,2.83
2023-08-07T03:48:47.214Z,2.70
2023-08-07T03:51:15.759Z,2.78
2023-08-07T03:53:42.155Z,2.58
2023-08-07T03:56:08.591Z,2.45
2023-08-07T03:58:35.020Z,2.78
2023-08-07T04:01:01.475Z,2.45
2023-08-07T04:03:27.959Z,2.50
2023-08-07T04:05:55.488Z,2.50
2023-08-07T04:08:23.422Z,2.85
2023-08-07T04:11:03.697Z,3.70
2023-08-07T04:13:31.162Z,3.55
2023-08-07T04:15:58.243Z,2.72
2023-08-07T04:18:25.001Z,2.65
2023-08-07T04:20:53.376Z,3.47
2023-08-07T04:23:20.055Z,3.20
2023-08-07T04:25:48.305Z,2.70
2023-08-07T04:28:15.031Z,2.95
2023-08-07T04:30:42.339Z,3.00
2023-08-07T04:33:09.160Z,3.08
2023-08-07T04:35:35.817Z,2.97
2023-08-07T04:38:03.309Z,2.75
2023-08-07T04:40:30.479Z,3.30
2023-08-07T04:42:57.579Z,3.03
2023-08-07T04:45:24.328Z,2.30
2023-08-07T04:47:50.923Z,2.55
2023-08-07T04:50:17.638Z,3.38
2023-08-07T04:52:44.224Z,3.13
2023-08-07T04:55:10.817Z,3.15
2023-08-07T04:57:37.251Z,2.97
2023-08-07T05:00:04.085Z,2.85
2023-08-07T05:02:30.596Z,3.33
2023-08-07T05:04:57.152Z,2.85
2023-08-07T05:07:23.635Z,2.97
2023-08-07T05:09:51.865Z,2.78
2023-08-07T05:12:18.305Z,2.78
2023-08-07T05:14:44.862Z,2.72
2023-08-07T05:17:11.324Z,2.80
2023-08-07T05:19:37.832Z,3.20
2023-08-07T05:22:05.009Z,3.17
2023-08-07T05:24:36.405Z,3.97
2023-08-07T05:27:02.883Z,3.40
2023-08-07T05:29:29.341Z,3.70
2023-08-07T05:31:56.063Z,3.22
2023-08-07T05:34:22.645Z,2.80
2023-08-07T05:36:50.120Z,3.42
2023-08-07T05:39:16.520Z,3.33
2023-08-07T05:41:43.100Z,3.40
2023-08-07T05:44:12.619Z,3.55
2023-08-07T05:46:39.271Z,3.65
2023-08-07T05:49:06.438Z,3.25
2023-08-07T05:51:32.851Z,3.55
2023-08-07T05:54:00.082Z,3.25
2023-08-07T05:56:26.851Z,3.10
2023-08-07T05:58:53.299Z,3.72
2023-08-07T06:01:19.937Z,3.08
2023-08-07T06:03:46.580Z,3.38
2023-08-07T06:06:13.550Z,3.67
2023-08-07T06:08:40.901Z,3.75
2023-08-07T06:11:09.469Z,3.45
2023-08-07T06:13:36.945Z,3.67
2023-08-07T06:16:03.598Z,4.25
2023-08-07T06:18:31.013Z,3.63
2023-08-07T06:20:57.617Z,3.40
2023-08-07T06:23:24.573Z,3.88
2023-08-07T06:25:52.693Z,3.65
2023-08-07T06:28:22.701Z,3.50
2023-08-07T06:30:49.719Z,3.20
2023-08-07T06:33:16.123Z,3.15
2023-08-07T06:35:43.768Z,3.55
2023-08-07T06:38:10.755Z,2.90
2023-08-07T06:40:38.766Z,3.03
2023-08-07T06:43:05.292Z,3.38
2023-08-07T06:45:31.731Z,3.22
2023-08-07T06:47:58.227Z,3.08
2023-08-07T06:50:25.331Z,2.70
2023-08-07T06:52:52.159Z,3.35
2023-08-07T06:55:19.887Z,3.25
2023-08-07T06:57:46.411Z,3.28
2023-08-07T07:00:13.286Z,2.88
2023-08-07T07:02:39.813Z,3.60
2023-08-07T07:05:06.533Z,3.45
2023-08-07T07:07:33.073Z,3.20
2023-08-07T07:10:01.577Z,3.40
2023-08-07T07:12:28.667Z,3.17
2023-08-07T07:14:55.258Z,3.05
2023-08-07T07:17:22.140Z,3.30
2023-08-07T07:19:48.609Z,2.80
2023-08-07T07:22:15.108Z,3.13
2023-08-07T07:24:41.632Z,2.70
2023-08-07T07:27:08.148Z,3.00
2023-08-07T07:29:34.539Z,2.80
2023-08-07T07:32:01.209Z,3.70
2023-08-07T07:34:28.006Z,2.80
2023-08-07T07:36:55.173Z,3.05
2023-08-07T07:39:22.049Z,2.90
2023-08-07T07:41:48.614Z,2.72
2023-08-07T07:44:15.128Z,2.67
2023-08-07T07:46:41.529Z,2.97
2023-08-07T07:49:07.940Z,3.08
2023-08-07T07:51:36.246Z,2.90
2023-08-07T07:54:14.724Z,2.97
2023-08-07T07:56:42.241Z,2.83
2023-08-07T07:59:09.573Z,3.08
2023-08-07T08:01:36.793Z,3.00
2023-08-07T08:04:03.487Z,3.15
2023-08-07T08:06:31.921Z,4.18
2023-08-07T08:08:58.817Z,3.83
2023-08-07T08:11:25.547Z,3.55
2023-08-07T08:13:52.475Z,3.40
2023-08-07T08:16:19.061Z,3.45
2023-08-07T08:18:45.611Z,3.40
2023-08-07T08:21:12.134Z,3.45
2023-08-07T08:23:38.639Z,3.33
2023-08-07T08:26:05.228Z,3.78
2023-08-07T08:28:31.893Z,3.25
2023-08-07T08:30:58.518Z,3.10
2023-08-07T08:33:24.976Z,2.83
2023-08-07T08:35:51.459Z,2.35
2023-08-07T08:38:20.946Z,2.33
2023-08-07T08:40:47.909Z,2.40
2023-08-07T08:43:14.887Z,1.88
2023-08-07T08:45:42.443Z,2.50
2023-08-07T08:48:15.212Z,2.60
2023-08-07T08:50:41.789Z,1.85
2023-08-07T08:53:10.712Z,2.80
2023-08-07T08:55:38.359Z,2.80
2023-08-07T08:58:05.125Z,3.22
2023-08-07T09:00:31.815Z,2.50
2023-08-07T09:02:58.450Z,2.50
2023-08-07T09:05:25.564Z,2.15
2023-08-07T09:07:52.051Z,1.65
2023-08-07T09:10:19.397Z,1.92
2023-08-07T09:13:06.260Z,1.77
2023-08-07T09:15:33.855Z,1.70
2023-08-07T09:18:00.577Z,1.58
2023-08-07T09:20:27.251Z,2.20
2023-08-07T09:22:53.736Z,1.77
2023-08-07T09:25:31.608Z,1.70
2023-08-07T09:27:58.521Z,1.80
2023-08-07T09:30:32.267Z,2.03
2023-08-07T09:33:00.272Z,1.88
2023-08-07T09:35:27.798Z,2.28
2023-08-07T09:37:54.412Z,2.28
2023-08-07T09:40:21.197Z,2.40
2023-08-07T09:42:53.434Z,2.20
2023-08-07T09:45:31.218Z,2.15
2023-08-07T09:48:05.222Z,1.85
2023-08-07T09:50:32.738Z,1.75
2023-08-07T09:52:59.997Z,1.88
2023-08-07T09:55:27.339Z,2.25
2023-08-07T09:57:54.263Z,2.38
2023-08-07T10:00:21.414Z,2.42
2023-08-07T10:02:49.681Z,2.25
2023-08-07T10:05:17.803Z,2.22
2023-08-07T10:07:44.552Z,2.55
2023-08-07T10:10:11.652Z,2.75
2023-08-07T10:12:39.478Z,2.65
2023-08-07T10:15:06.442Z,2.78
2023-08-07T10:17:34.022Z,2.25
2023-08-07T10:20:00.624Z,2.20
2023-08-07T10:22:30.660Z,2.30
2023-08-07T10:25:01.873Z,2.30
2023-08-07T10:27:32.639Z,2.00
2023-08-07T10:30:01.126Z,2.03
2023-08-07T10:32:28.911Z,1.98
2023-08-07T10:34:55.665Z,2.10
2023-08-07T10:37:55.315Z,1.85
2023-08-07T10:40:22.449Z,1.83
2023-08-07T10:43:15.060Z,1.83
2023-08-07T10:45:41.513Z,2.50
2023-08-07T10:48:19.371Z,1.98
2023-08-07T10:51:01.115Z,2.00
2023-08-07T10:53:37.456Z,1.88
2023-08-07T10:56:05.153Z,1.88
2023-08-07T10:58:35.856Z,1.80
2023-08-07T11:01:30.351Z,2.17
2023-08-07T11:03:59.375Z,1.57
2023-08-07T11:06:36.846Z,2.22
2023-08-07T11:09:05.969Z,1.92
2023-08-07T11:11:46.013Z,1.60
2023-08-07T11:14:20.063Z,1.67
2023-08-07T11:16:49.031Z,1.50
2023-08-07T11:19:17.836Z,1.65
2023-08-07T11:21:44.603Z,1.83
2023-08-07T11:24:15.128Z,1.80
2023-08-07T11:26:45.672Z,1.50
2023-08-07T11:29:16.461Z,1.40
2023-08-07T11:31:43.068Z,1.30
2023-08-07T11:34:11.894Z,1.58
2023-08-07T11:36:45.057Z,1.35
2023-08-07T11:39:12.740Z,1.50
2023-08-07T11:41:39.220Z,1.80
2023-08-07T11:44:08.507Z,1.67
2023-08-07T11:46:35.064Z,1.27
2023-08-07T11:49:01.913Z,1.40
2023-08-07T11:51:29.756Z,1.55
2023-08-07T11:53:59.154Z,1.38
2023-08-07T11:56:25.840Z,1.50
2023-08-07T11:58:54.923Z,1.50
2023-08-07T12:01:23.259Z,1.95
2023-08-07T12:03:58.347Z,1.83
2023-08-07T12:06:26.097Z,1.60
2023-08-07T12:08:56.851Z,1.80
2023-08-07T12:11:23.754Z,1.30
2023-08-07T12:13:51.150Z,2.42
2023-08-07T12:16:18.857Z,1.40
2023-08-07T12:18:50.490Z,1.60
2023-08-07T12:21:26.099Z,1.88
2023-08-07T12:23:55.967Z,1.60
2023-08-07T12:26:22.495Z,1.35
2023-08-07T12:28:49.286Z,1.80
2023-08-07T12:31:15.933Z,1.42
2023-08-07T12:33:51.212Z,1.52
2023-08-07T12:36:20.983Z,1.75
2023-08-07T12:38:47.871Z,1.38
2023-08-07T12:43:44.742Z,1.55
2023-08-07T12:48:45.617Z,1.30
2023-08-07T12:51:12.092Z,1.42
2023-08-07T12:53:38.517Z,1.33
2023-08-07T12:56:06.569Z,1.40
2023-08-07T12:58:32.998Z,1.60
2023-08-07T13:00:59.789Z,1.25
2023-08-07T13:03:26.369Z,1.15
2023-08-07T13:05:52.871Z,1.30
2023-08-07T13:08:19.565Z,1.42
2023-08-07T13:10:49.738Z,1.25
2023-08-07T13:13:16.876Z,1.63
2023-08-07T13:15:43.305Z,1.23
2023-08-07T13:18:09.818Z,1.38
2023-08-07T13:20:36.274Z,1.48
2023-08-07T13:23:03.186Z,1.50
2023-08-07T13:25:29.640Z,1.10
2023-08-07T13:27:56.117Z,1.27
2023-08-07T13:30:22.713Z,1.20
2023-08-07T13:32:49.171Z,1.25
2023-08-07T13:35:15.682Z,1.30
2023-08-07T13:37:42.170Z,1.33
2023-08-07T13:40:09.308Z,1.50
2023-08-07T13:42:35.829Z,1.55
2023-08-07T13:45:02.291Z,1.40
2023-08-07T13:47:29.107Z,1.40
2023-08-07T13:49:55.818Z,1.45
2023-08-07T13:52:22.581Z,1.30
2023-08-07T13:54:49.177Z,1.55
2023-08-07T13:57:16.199Z,1.33
2023-08-07T13:59:42.657Z,1.00
2023-08-07T14:02:09.799Z,1.05
2023-08-07T14:04:36.370Z,1.58
2023-08-07T14:07:03.718Z,1.25
2023-08-07T14:09:30.192Z,1.38
2023-08-07T14:11:58.099Z,1.27
2023-08-07T14:14:27.935Z,1.52
2023-08-07T14:16:57.636Z,1.33
2023-08-07T14:19:25.291Z,1.30
2023-08-07T14:21:52.554Z,1.42
2023-08-07T14:24:19.039Z,1.20
2023-08-07T14:26:45.492Z,1.52
2023-08-07T14:29:13.673Z,1.65
2023-08-07T14:31:40.900Z,1.50
2023-08-07T14:34:08.543Z,1.35
2023-08-07T14:36:34.987Z,1.52
2023-08-07T14:39:01.398Z,1.13
2023-08-07T14:41:28.003Z,1.35
2023-08-07T14:43:54.511Z,1.70
2023-08-07T14:46:21.431Z,1.73
2023-08-07T14:48:48.002Z,1.48
2023-08-07T14:51:14.691Z,1.42
2023-08-07T14:53:41.167Z,1.95
2023-08-07T14:56:10.703Z,1.40
2023-08-07T14:58:37.122Z,2.00
2023-08-07T15:01:04.668Z,1.40
2023-08-07T15:03:31.360Z,1.88
2023-08-07T15:05:58.863Z,1.75
2023-08-07T15:08:25.373Z,1.80
2023-08-07T15:10:54.710Z,1.83
2023-08-07T15:13:21.338Z,1.90
2023-08-07T15:15:47.824Z,1.50
2023-08-07T15:18:14.462Z,1.67
2023-08-07T15:20:41.477Z,1.65
2023-08-07T15:23:07.925Z,1.77
2023-08-07T15:25:34.337Z,1.90
2023-08-07T15:28:01.556Z,1.60
2023-08-07T15:30:29.284Z,1.63
2023-08-07T15:32:55.849Z,1.85
2023-08-07T15:35:22.354Z,1.80
2023-08-07T15:37:48.869Z,1.58
2023-08-07T15:40:15.324Z,1.60
2023-08-07T15:42:46.282Z,2.15
2023-08-07T15:45:13.851Z,1.73
2023-08-07T15:47:40.878Z,1.92
2023-08-07T15:50:08.020Z,2.03
2023-08-07T15:52:34.493Z,1.95
2023-08-07T15:55:00.927Z,2.10
2023-08-07T15:57:27.420Z,2.00
2023-08-07T15:59:53.848Z,2.15
2023-08-07T16:02:20.384Z,2.17
2023-08-07T16:04:46.891Z,1.80
2023-08-07T16:07:13.413Z,1.58
2023-08-07T16:09:39.813Z,1.52
2023-08-07T16:12:06.604Z,1.80
2023-08-07T16:14:35.839Z,2.00
2023-08-07T16:17:03.695Z,1.42
2023-08-07T16:19:30.149Z,1.52
2023-08-07T16:21:56.680Z,1.85
2023-08-07T16:24:23.116Z,1.50
2023-08-07T16:26:49.517Z,1.85
2023-08-07T16:29:15.962Z,1.52
2023-08-07T16:31:42.446Z,1.67
2023-08-07T16:34:09.601Z,1.23
2023-08-07T16:36:37.138Z,1.60
2023-08-07T16:39:03.808Z,1.70
2023-08-07T16:41:33.240Z,1.83
2023-08-07T16:43:59.643Z,1.70
2023-08-07T16:46:26.105Z,1.70
2023-08-07T16:48:52.556Z,1.88
2023-08-07T16:51:19.964Z,1.58
2023-08-07T16:53:49.648Z,1.85
2023-08-07T16:56:16.276Z,1.30
2023-08-07T16:58:45.468Z,1.38
2023-08-07T17:01:13.107Z,1.50
2023-08-07T17:03:39.690Z,1.50
2023-08-07T17:06:06.134Z,1.60
2023-08-07T17:08:33.531Z,1.38
2023-08-07T17:11:01.196Z,1.50
2023-08-07T17:13:27.669Z,1.40
2023-08-07T17:15:54.089Z,1.30
2023-08-07T17:18:20.558Z,1.48
2023-08-07T17:20:46.985Z,1.33
2023-08-07T17:23:13.474Z,1.17
2023-08-07T17:25:40.163Z,1.33
2023-08-07T17:28:07.306Z,1.30
2023-08-07T17:30:33.888Z,2.05
2023-08-07T17:33:00.967Z,1.60
2023-08-07T17:35:27.461Z,2.10
2023-08-07T17:37:53.926Z,2.42
2023-08-07T17:40:20.424Z,1.30
2023-08-07T17:42:46.799Z,1.80
2023-08-07T17:45:13.795Z,1.58
2023-08-07T17:47:42.348Z,1.58
2023-08-07T17:50:10.443Z,1.88
2023-08-07T17:52:40.345Z,1.60
2023-08-07T17:55:07.935Z,1.48
2023-08-07T17:57:34.484Z,1.70
2023-08-07T18:00:00.959Z,1.65
2023-08-07T18:02:27.630Z,1.40
2023-08-07T18:04:54.405Z,1.73
2023-08-07T18:07:20.919Z,1.60
2023-08-07T18:09:47.390Z,1.35
2023-08-07T18:12:14.013Z,1.83
2023-08-07T18:14:40.801Z,1.80
2023-08-07T18:17:09.396Z,1.60
2023-08-07T18:19:35.865Z,1.70
2023-08-07T18:22:02.342Z,1.50
2023-08-07T18:24:28.907Z,1.50
2023-08-07T18:26:55.388Z,1.42
2023-08-07T18:29:22.294Z,1.67
2023-08-07T18:31:49.895Z,1.77
2023-08-07T18:34:17.843Z,1.48
2023-08-07T18:36:45.300Z,1.40
2023-08-07T18:39:12.117Z,1.50
2023-08-07T18:41:38.606Z,1.55
2023-08-07T18:44:05.048Z,1.80
2023-08-07T18:46:31.646Z,1.42
2023-08-07T18:48:58.154Z,1.50
2023-08-07T18:51:24.694Z,2.20
2023-08-07T18:53:51.322Z,2.92
2023-08-07T18:56:17.954Z,3.10
2023-08-07T18:58:44.428Z,3.20
2023-08-07T19:01:11.082Z,2.20
2023-08-07T19:03:37.956Z,1.80
2023-08-07T19:06:06.507Z,1.73
2023-08-07T19:08:36.359Z,1.73
2023-08-07T19:11:02.857Z,1.60
2023-08-07T19:13:29.588Z,1.55
2023-08-07T19:15:56.900Z,1.60
2023-08-07T19:18:24.406Z,1.83
2023-08-07T19:20:50.886Z,1.88
2023-08-07T19:23:17.432Z,2.13
2023-08-07T19:25:44.075Z,2.20
2023-08-07T19:28:10.578Z,1.52
2023-08-07T19:30:37.006Z,1.80
2023-08-07T19:33:06.402Z,2.10
2023-08-07T19:35:32.968Z,1.77
2023-08-07T19:37:59.502Z,1.63
2023-08-07T19:40:27.072Z,2.30
2023-08-07T19:42:53.494Z,1.90
2023-08-07T19:45:20.493Z,1.77
2023-08-07T19:47:48.072Z,1.90
2023-08-07T19:50:15.349Z,2.00
2023-08-07T19:52:42.019Z,1.63
2023-08-07T19:55:09.113Z,2.00
2023-08-07T19:57:35.848Z,2.60
2023-08-07T20:00:02.742Z,1.70
2023-08-07T20:02:29.222Z,1.77
2023-08-07T20:04:55.726Z,1.85
2023-08-07T20:07:22.308Z,1.83
2023-08-07T20:09:49.041Z,1.63
2023-08-07T20:12:17.491Z,2.13
2023-08-07T20:14:44.036Z,1.90
2023-08-07T20:17:10.468Z,2.20
2023-08-07T20:19:36.871Z,2.17
2023-08-07T20:22:03.728Z,2.00
2023-08-07T20:24:30.360Z,1.73
2023-08-07T20:26:57.549Z,2.17
2023-08-07T20:29:25.252Z,1.60
2023-08-07T20:31:52.078Z,1.80
2023-08-07T20:34:18.597Z,2.00
2023-08-07T20:36:45.206Z,2.10
2023-08-07T20:39:13.860Z,1.98
2023-08-07T20:41:40.316Z,1.92
2023-08-07T20:44:06.732Z,1.83
2023-08-07T20:46:33.758Z,2.15
2023-08-07T20:49:00.289Z,1.90
2023-08-07T20:51:26.775Z,1.83
2023-08-07T20:53:53.220Z,1.92
2023-08-07T20:56:19.760Z,2.03
2023-08-07T20:58:46.172Z,2.30
2023-08-07T21:01:12.661Z,2.38
2023-08-07T21:03:39.280Z,1.90
2023-08-07T21:06:05.718Z,1.92
2023-08-07T21:08:32.195Z,1.92
2023-08-07T21:10:59.313Z,2.35
2023-08-07T21:13:25.757Z,2.08
2023-08-07T21:15:52.233Z,2.42
2023-08-07T21:18:18.718Z,2.10
2023-08-07T21:20:45.320Z,2.17
2023-08-07T21:23:16.188Z,2.03
2023-08-07T21:25:42.624Z,2.28
2023-08-07T21:28:10.458Z,2.35
2023-08-07T21:30:36.978Z,2.05
2023-08-07T21:33:03.945Z,1.92
2023-08-07T21:35:30.508Z,2.00
2023-08-07T21:37:56.943Z,1.92
2023-08-07T21:40:24.655Z,1.70
2023-08-07T21:42:51.099Z,2.28
2023-08-07T21:45:17.539Z,2.00
2023-08-07T21:47:45.383Z,1.80
2023-08-07T21:50:12.388Z,2.00
2023-08-07T21:52:39.260Z,1.80
2023-08-07T21:55:06.224Z,1.70
2023-08-07T21:57:33.965Z,1.50
2023-08-07T22:00:00.509Z,1.50
2023-08-07T22:02:27.229Z,1.50
2023-08-07T22:04:53.865Z,1.40
2023-08-07T22:07:23.106Z,1.88
2023-08-07T22:09:50.086Z,1.52
2023-08-07T22:12:16.466Z,1.27
2023-08-07T22:14:43.142Z,1.17
2023-08-07T22:17:09.794Z,1.48
2023-08-07T22:19:36.214Z,1.95
2023-08-07T22:22:02.724Z,1.52
2023-08-07T22:24:29.295Z,1.65
2023-08-07T22:26:55.764Z,1.38
2023-08-07T22:29:22.274Z,2.20
2023-08-07T22:31:48.991Z,1.60
2023-08-07T22:34:15.541Z,1.40
2023-08-07T22:36:42.035Z,1.17
2023-08-07T22:39:08.509Z,1.60
2023-08-07T22:41:35.052Z,1.60
2023-08-07T22:44:02.054Z,1.80
2023-08-07T22:46:28.561Z,1.80
2023-08-07T22:48:55.165Z,1.73
2023-08-07T22:51:21.748Z,1.52
2023-08-07T22:53:48.186Z,1.50
2023-08-07T22:56:14.743Z,1.48
2023-08-07T22:58:41.294Z,1.45
2023-08-07T23:01:08.229Z,1.25
2023-08-07T23:03:34.812Z,1.50
2023-08-07T23:06:01.277Z,1.70
2023-08-07T23:08:27.709Z,1.60
2023-08-07T23:10:54.281Z,1.40
2023-08-07T23:13:20.756Z,1.20
2023-08-07T23:15:48.105Z,1.40
2023-08-07T23:18:14.793Z,1.45
2023-08-07T23:20:41.272Z,1.55
2023-08-07T23:23:07.724Z,1.65
2023-08-07T23:25:34.196Z,1.40
2023-08-07T23:28:00.613Z,1.90
2023-08-07T23:30:27.104Z,1.42
2023-08-07T23:32:53.539Z,1.10
2023-08-07T23:35:20.062Z,1.30
2023-08-07T23:37:46.759Z,1.77
2023-08-07T23:40:13.408Z,1.23
2023-08-07T23:42:39.884Z,1.50
2023-08-07T23:45:06.942Z,1.60
2023-08-07T23:47:33.450Z,1.50
2023-08-07T23:50:00.002Z,1.70
2023-08-07T23:52:26.575Z,1.65
2023-08-07T23:54:53.039Z,1.77
2023-08-07T23:57:19.436Z,1.60
2023-08-07T23:59:45.885Z,1.50
